sensor_id;sensor_type;location;lat;lon;timestamp;P1;durP1;ratioP1;P2;durP2;ratioP2
9160;SDS011;4615;51.340;8.288;2022-08-19T00:02:23;20.00;;;18.00;;
9160;SDS011;4615;51.340;8.288;2022-08-19T00:04:49;21.57;;;19.00;;
9160;SDS011;4615;51.340;8.288;2022-08-19T00:07:17;23.90;;;19.90;;
9160;SDS011;4615;51.340;8.288;2022-08-19T00:09:45;21.77;;;19.50;;
9160;SDS011;4615;51.340;8.288;2022-08-19T00:12:11;22.27;;;19.97;;
9160;SDS011;4615;51.340;8.288;2022-08-19T00:14:38;23.33;;;21.03;;
9160;SDS011;4615;51.340;8.288;2022-08-19T00:17:06;22.80;;;20.40;;
9160;SDS011;4615;51.340;8.288;2022-08-19T00:19:33;22.57;;;20.20;;
9160;SDS011;4615;51.340;8.288;2022-08-19T00:21:59;22.83;;;20.10;;
9160;SDS011;4615;51.340;8.288;2022-08-19T00:24:27;25.10;;;21.10;;
9160;SDS011;4615;51.340;8.288;2022-08-19T00:26:55;23.30;;;21.00;;
9160;SDS011;4615;51.340;8.288;2022-08-19T00:29:23;24.77;;;20.73;;
9160;SDS011;4615;51.340;8.288;2022-08-19T00:31:50;23.90;;;20.70;;
9160;SDS011;4615;51.340;8.288;2022-08-19T00:34:18;26.60;;;20.83;;
9160;SDS011;4615;51.340;8.288;2022-08-19T00:36:45;25.33;;;21.30;;
9160;SDS011;4615;51.340;8.288;2022-08-19T00:39:12;23.60;;;21.10;;
9160;SDS011;4615;51.340;8.288;2022-08-19T00:41:38;25.60;;;21.97;;
9160;SDS011;4615;51.340;8.288;2022-08-19T00:44:08;24.03;;;21.43;;
9160;SDS011;4615;51.340;8.288;2022-08-19T00:46:35;25.07;;;22.37;;
9160;SDS011;4615;51.340;8.288;2022-08-19T00:49:05;24.37;;;21.77;;
9160;SDS011;4615;51.340;8.288;2022-08-19T00:51:32;25.07;;;22.37;;
9160;SDS011;4615;51.340;8.288;2022-08-19T00:53:59;26.57;;;23.37;;
9160;SDS011;4615;51.340;8.288;2022-08-19T00:56:27;28.50;;;24.10;;
9160;SDS011;4615;51.340;8.288;2022-08-19T00:58:53;22.80;;;20.37;;
9160;SDS011;4615;51.340;8.288;2022-08-19T01:01:22;27.07;;;24.17;;
9160;SDS011;4615;51.340;8.288;2022-08-19T01:03:48;23.57;;;20.73;;
9160;SDS011;4615;51.340;8.288;2022-08-19T01:06:14;23.00;;;20.60;;
9160;SDS011;4615;51.340;8.288;2022-08-19T01:08:41;22.93;;;20.63;;
9160;SDS011;4615;51.340;8.288;2022-08-19T01:11:07;24.57;;;21.67;;
9160;SDS011;4615;51.340;8.288;2022-08-19T01:13:34;23.53;;;20.47;;
9160;SDS011;4615;51.340;8.288;2022-08-19T01:16:02;25.60;;;20.73;;
9160;SDS011;4615;51.340;8.288;2022-08-19T01:18:31;23.93;;;21.23;;
9160;SDS011;4615;51.340;8.288;2022-08-19T01:20:59;22.60;;;20.27;;
9160;SDS011;4615;51.340;8.288;2022-08-19T01:23:29;23.27;;;20.83;;
9160;SDS011;4615;51.340;8.288;2022-08-19T01:26:09;23.47;;;20.93;;
9160;SDS011;4615;51.340;8.288;2022-08-19T01:28:36;22.40;;;20.10;;
9160;SDS011;4615;51.340;8.288;2022-08-19T01:31:14;20.53;;;18.33;;
9160;SDS011;4615;51.340;8.288;2022-08-19T01:33:41;22.70;;;20.33;;
9160;SDS011;4615;51.340;8.288;2022-08-19T01:36:13;23.67;;;21.17;;
9160;SDS011;4615;51.340;8.288;2022-08-19T01:38:42;24.67;;;20.87;;
9160;SDS011;4615;51.340;8.288;2022-08-19T01:41:11;24.27;;;21.67;;
9160;SDS011;4615;51.340;8.288;2022-08-19T01:43:37;27.07;;;20.83;;
9160;SDS011;4615;51.340;8.288;2022-08-19T01:46:04;21.23;;;18.93;;
9160;SDS011;4615;51.340;8.288;2022-08-19T01:48:34;21.67;;;19.37;;
9160;SDS011;4615;51.340;8.288;2022-08-19T01:51:01;21.53;;;19.07;;
9160;SDS011;4615;51.340;8.288;2022-08-19T01:53:28;19.87;;;17.83;;
9160;SDS011;4615;51.340;8.288;2022-08-19T01:55:56;21.50;;;19.40;;
9160;SDS011;4615;51.340;8.288;2022-08-19T01:58:24;20.67;;;18.37;;
9160;SDS011;4615;51.340;8.288;2022-08-19T02:00:51;20.97;;;18.77;;
9160;SDS011;4615;51.340;8.288;2022-08-19T02:03:17;20.63;;;18.60;;
9160;SDS011;4615;51.340;8.288;2022-08-19T02:05:44;21.10;;;18.30;;
9160;SDS011;4615;51.340;8.288;2022-08-19T02:08:10;19.93;;;17.83;;
9160;SDS011;4615;51.340;8.288;2022-08-19T02:10:38;22.60;;;19.83;;
9160;SDS011;4615;51.340;8.288;2022-08-19T02:13:06;22.50;;;20.17;;
9160;SDS011;4615;51.340;8.288;2022-08-19T02:15:32;23.63;;;21.13;;
9160;SDS011;4615;51.340;8.288;2022-08-19T02:17:59;21.87;;;19.57;;
9160;SDS011;4615;51.340;8.288;2022-08-19T02:20:25;20.50;;;18.40;;
9160;SDS011;4615;51.340;8.288;2022-08-19T02:22:51;20.73;;;18.63;;
9160;SDS011;4615;51.340;8.288;2022-08-19T02:25:18;20.87;;;18.13;;
9160;SDS011;4615;51.340;8.288;2022-08-19T02:27:44;21.20;;;18.93;;
9160;SDS011;4615;51.340;8.288;2022-08-19T02:30:14;21.37;;;19.07;;
9160;SDS011;4615;51.340;8.288;2022-08-19T02:32:41;21.20;;;18.90;;
9160;SDS011;4615;51.340;8.288;2022-08-19T02:35:08;22.97;;;20.47;;
9160;SDS011;4615;51.340;8.288;2022-08-19T02:37:34;20.97;;;18.63;;
9160;SDS011;4615;51.340;8.288;2022-08-19T02:40:18;21.50;;;19.30;;
9160;SDS011;4615;51.340;8.288;2022-08-19T02:42:45;21.63;;;19.53;;
9160;SDS011;4615;51.340;8.288;2022-08-19T02:45:13;20.37;;;18.27;;
9160;SDS011;4615;51.340;8.288;2022-08-19T02:47:40;21.57;;;19.27;;
9160;SDS011;4615;51.340;8.288;2022-08-19T02:50:06;20.90;;;18.50;;
9160;SDS011;4615;51.340;8.288;2022-08-19T02:52:33;22.23;;;19.93;;
9160;SDS011;4615;51.340;8.288;2022-08-19T02:55:00;22.10;;;19.80;;
9160;SDS011;4615;51.340;8.288;2022-08-19T02:57:26;22.07;;;19.43;;
9160;SDS011;4615;51.340;8.288;2022-08-19T02:59:53;22.40;;;20.17;;
9160;SDS011;4615;51.340;8.288;2022-08-19T03:02:20;21.03;;;18.83;;
9160;SDS011;4615;51.340;8.288;2022-08-19T03:04:47;19.57;;;17.77;;
9160;SDS011;4615;51.340;8.288;2022-08-19T03:07:14;19.33;;;17.33;;
9160;SDS011;4615;51.340;8.288;2022-08-19T03:09:40;20.40;;;17.90;;
9160;SDS011;4615;51.340;8.288;2022-08-19T03:12:07;20.70;;;18.50;;
9160;SDS011;4615;51.340;8.288;2022-08-19T03:14:34;19.80;;;17.80;;
9160;SDS011;4615;51.340;8.288;2022-08-19T03:17:01;19.10;;;17.10;;
9160;SDS011;4615;51.340;8.288;2022-08-19T03:19:30;18.93;;;17.07;;
9160;SDS011;4615;51.340;8.288;2022-08-19T03:21:57;18.57;;;16.67;;
9160;SDS011;4615;51.340;8.288;2022-08-19T03:24:24;21.20;;;19.03;;
9160;SDS011;4615;51.340;8.288;2022-08-19T03:26:51;21.50;;;18.43;;
9160;SDS011;4615;51.340;8.288;2022-08-19T03:29:23;20.07;;;17.93;;
9160;SDS011;4615;51.340;8.288;2022-08-19T03:31:50;20.17;;;18.07;;
9160;SDS011;4615;51.340;8.288;2022-08-19T03:34:18;22.07;;;19.77;;
9160;SDS011;4615;51.340;8.288;2022-08-19T03:36:46;20.07;;;18.07;;
9160;SDS011;4615;51.340;8.288;2022-08-19T03:39:13;21.83;;;19.53;;
9160;SDS011;4615;51.340;8.288;2022-08-19T03:41:41;20.50;;;18.50;;
9160;SDS011;4615;51.340;8.288;2022-08-19T03:44:08;19.93;;;17.93;;
9160;SDS011;4615;51.340;8.288;2022-08-19T03:46:35;19.33;;;17.43;;
9160;SDS011;4615;51.340;8.288;2022-08-19T03:49:03;18.97;;;17.00;;
9160;SDS011;4615;51.340;8.288;2022-08-19T03:51:35;20.50;;;18.30;;
9160;SDS011;4615;51.340;8.288;2022-08-19T03:54:05;19.23;;;17.43;;
9160;SDS011;4615;51.340;8.288;2022-08-19T03:56:35;20.33;;;18.23;;
9160;SDS011;4615;51.340;8.288;2022-08-19T03:59:03;20.23;;;17.93;;
9160;SDS011;4615;51.340;8.288;2022-08-19T04:01:30;20.10;;;17.80;;
9160;SDS011;4615;51.340;8.288;2022-08-19T04:03:57;23.77;;;19.73;;
9160;SDS011;4615;51.340;8.288;2022-08-19T04:06:26;25.60;;;20.87;;
9160;SDS011;4615;51.340;8.288;2022-08-19T04:08:52;25.43;;;21.67;;
9160;SDS011;4615;51.340;8.288;2022-08-19T04:11:22;26.97;;;22.07;;
9160;SDS011;4615;51.340;8.288;2022-08-19T04:13:49;26.37;;;21.40;;
9160;SDS011;4615;51.340;8.288;2022-08-19T04:16:16;23.43;;;21.03;;
9160;SDS011;4615;51.340;8.288;2022-08-19T04:18:43;24.57;;;21.80;;
9160;SDS011;4615;51.340;8.288;2022-08-19T04:21:14;22.97;;;20.47;;
9160;SDS011;4615;51.340;8.288;2022-08-19T04:23:41;24.90;;;20.90;;
9160;SDS011;4615;51.340;8.288;2022-08-19T04:26:07;23.10;;;20.07;;
9160;SDS011;4615;51.340;8.288;2022-08-19T04:28:39;23.33;;;18.60;;
9160;SDS011;4615;51.340;8.288;2022-08-19T04:31:05;22.23;;;19.90;;
9160;SDS011;4615;51.340;8.288;2022-08-19T04:33:32;21.70;;;19.17;;
9160;SDS011;4615;51.340;8.288;2022-08-19T04:35:59;22.00;;;19.37;;
9160;SDS011;4615;51.340;8.288;2022-08-19T04:38:25;21.60;;;19.43;;
9160;SDS011;4615;51.340;8.288;2022-08-19T04:40:52;25.37;;;20.23;;
9160;SDS011;4615;51.340;8.288;2022-08-19T04:43:51;28.27;;;21.90;;
9160;SDS011;4615;51.340;8.288;2022-08-19T04:46:18;25.77;;;22.57;;
9160;SDS011;4615;51.340;8.288;2022-08-19T04:48:45;26.27;;;21.07;;
9160;SDS011;4615;51.340;8.288;2022-08-19T04:51:11;22.60;;;18.60;;
9160;SDS011;4615;51.340;8.288;2022-08-19T04:53:39;20.90;;;18.70;;
9160;SDS011;4615;51.340;8.288;2022-08-19T04:56:06;21.60;;;19.30;;
9160;SDS011;4615;51.340;8.288;2022-08-19T04:58:33;23.60;;;19.87;;
9160;SDS011;4615;51.340;8.288;2022-08-19T05:01:01;26.43;;;21.63;;
9160;SDS011;4615;51.340;8.288;2022-08-19T05:03:28;23.27;;;19.70;;
9160;SDS011;4615;51.340;8.288;2022-08-19T05:05:58;23.00;;;19.43;;
9160;SDS011;4615;51.340;8.288;2022-08-19T05:08:29;22.77;;;19.13;;
9160;SDS011;4615;51.340;8.288;2022-08-19T05:10:56;24.67;;;18.50;;
9160;SDS011;4615;51.340;8.288;2022-08-19T05:13:22;22.07;;;17.90;;
9160;SDS011;4615;51.340;8.288;2022-08-19T05:15:53;23.77;;;18.23;;
9160;SDS011;4615;51.340;8.288;2022-08-19T05:18:21;19.00;;;17.07;;
9160;SDS011;4615;51.340;8.288;2022-08-19T05:21:05;19.90;;;17.77;;
9160;SDS011;4615;51.340;8.288;2022-08-19T05:23:49;19.43;;;17.53;;
9160;SDS011;4615;51.340;8.288;2022-08-19T05:26:16;20.03;;;16.23;;
9160;SDS011;4615;51.340;8.288;2022-08-19T05:28:42;18.60;;;16.40;;
9160;SDS011;4615;51.340;8.288;2022-08-19T05:31:08;23.10;;;18.77;;
9160;SDS011;4615;51.340;8.288;2022-08-19T05:33:36;19.43;;;17.43;;
9160;SDS011;4615;51.340;8.288;2022-08-19T05:36:04;23.30;;;18.77;;
9160;SDS011;4615;51.340;8.288;2022-08-19T05:38:32;24.30;;;20.03;;
9160;SDS011;4615;51.340;8.288;2022-08-19T05:40:58;29.23;;;19.07;;
9160;SDS011;4615;51.340;8.288;2022-08-19T05:43:25;20.37;;;18.03;;
9160;SDS011;4615;51.340;8.288;2022-08-19T05:45:51;19.20;;;17.20;;
9160;SDS011;4615;51.340;8.288;2022-08-19T05:48:18;21.20;;;18.93;;
9160;SDS011;4615;51.340;8.288;2022-08-19T05:50:46;21.00;;;18.83;;
9160;SDS011;4615;51.340;8.288;2022-08-19T05:53:15;19.97;;;17.97;;
9160;SDS011;4615;51.340;8.288;2022-08-19T05:55:41;23.40;;;21.00;;
9160;SDS011;4615;51.340;8.288;2022-08-19T05:58:08;25.00;;;22.30;;
9160;SDS011;4615;51.340;8.288;2022-08-19T06:00:34;30.53;;;26.83;;
9160;SDS011;4615;51.340;8.288;2022-08-19T06:03:01;26.57;;;23.23;;
9160;SDS011;4615;51.340;8.288;2022-08-19T06:05:28;23.67;;;21.17;;
9160;SDS011;4615;51.340;8.288;2022-08-19T06:07:56;23.43;;;21.00;;
9160;SDS011;4615;51.340;8.288;2022-08-19T06:10:24;21.97;;;19.77;;
9160;SDS011;4615;51.340;8.288;2022-08-19T06:12:51;22.23;;;19.63;;
9160;SDS011;4615;51.340;8.288;2022-08-19T06:15:17;19.17;;;17.27;;
9160;SDS011;4615;51.340;8.288;2022-08-19T06:17:44;19.50;;;17.10;;
9160;SDS011;4615;51.340;8.288;2022-08-19T06:20:11;19.03;;;17.03;;
9160;SDS011;4615;51.340;8.288;2022-08-19T06:22:39;19.20;;;17.20;;
9160;SDS011;4615;51.340;8.288;2022-08-19T06:25:07;19.13;;;17.00;;
9160;SDS011;4615;51.340;8.288;2022-08-19T06:27:34;17.67;;;16.00;;
9160;SDS011;4615;51.340;8.288;2022-08-19T06:30:00;20.10;;;16.30;;
9160;SDS011;4615;51.340;8.288;2022-08-19T06:32:27;18.60;;;16.63;;
9160;SDS011;4615;51.340;8.288;2022-08-19T06:34:53;18.80;;;16.90;;
9160;SDS011;4615;51.340;8.288;2022-08-19T06:37:20;20.40;;;18.40;;
9160;SDS011;4615;51.340;8.288;2022-08-19T06:39:47;21.47;;;19.27;;
9160;SDS011;4615;51.340;8.288;2022-08-19T06:42:15;21.27;;;18.97;;
9160;SDS011;4615;51.340;8.288;2022-08-19T06:44:44;21.57;;;19.40;;
9160;SDS011;4615;51.340;8.288;2022-08-19T06:47:11;23.17;;;20.07;;
9160;SDS011;4615;51.340;8.288;2022-08-19T06:49:38;22.90;;;20.27;;
9160;SDS011;4615;51.340;8.288;2022-08-19T06:52:05;24.13;;;20.17;;
9160;SDS011;4615;51.340;8.288;2022-08-19T06:54:32;23.33;;;20.83;;
9160;SDS011;4615;51.340;8.288;2022-08-19T06:56:58;23.03;;;20.63;;
9160;SDS011;4615;51.340;8.288;2022-08-19T06:59:29;22.47;;;20.00;;
9160;SDS011;4615;51.340;8.288;2022-08-19T07:01:57;22.53;;;20.37;;
9160;SDS011;4615;51.340;8.288;2022-08-19T07:04:25;22.37;;;20.20;;
9160;SDS011;4615;51.340;8.288;2022-08-19T07:06:56;21.83;;;19.53;;
9160;SDS011;4615;51.340;8.288;2022-08-19T07:09:22;23.20;;;20.80;;
9160;SDS011;4615;51.340;8.288;2022-08-19T07:11:49;22.13;;;20.03;;
9160;SDS011;4615;51.340;8.288;2022-08-19T07:14:17;22.83;;;20.43;;
9160;SDS011;4615;51.340;8.288;2022-08-19T07:16:45;21.30;;;19.23;;
9160;SDS011;4615;51.340;8.288;2022-08-19T07:19:12;21.70;;;19.43;;
9160;SDS011;4615;51.340;8.288;2022-08-19T07:21:39;21.13;;;18.87;;
9160;SDS011;4615;51.340;8.288;2022-08-19T07:24:06;22.63;;;19.90;;
9160;SDS011;4615;51.340;8.288;2022-08-19T07:26:37;21.70;;;19.30;;
9160;SDS011;4615;51.340;8.288;2022-08-19T07:29:05;20.93;;;18.83;;
9160;SDS011;4615;51.340;8.288;2022-08-19T07:31:31;20.47;;;18.27;;
9160;SDS011;4615;51.340;8.288;2022-08-19T07:34:03;21.63;;;19.40;;
9160;SDS011;4615;51.340;8.288;2022-08-19T07:36:31;20.37;;;17.87;;
9160;SDS011;4615;51.340;8.288;2022-08-19T07:38:59;18.73;;;16.87;;
9160;SDS011;4615;51.340;8.288;2022-08-19T07:41:27;18.53;;;16.63;;
9160;SDS011;4615;51.340;8.288;2022-08-19T07:43:56;20.17;;;18.27;;
9160;SDS011;4615;51.340;8.288;2022-08-19T07:46:23;18.33;;;16.50;;
9160;SDS011;4615;51.340;8.288;2022-08-19T07:48:50;17.07;;;15.27;;
9160;SDS011;4615;51.340;8.288;2022-08-19T07:51:19;20.50;;;16.63;;
9160;SDS011;4615;51.340;8.288;2022-08-19T07:53:46;19.13;;;15.57;;
9160;SDS011;4615;51.340;8.288;2022-08-19T07:56:13;14.57;;;12.97;;
9160;SDS011;4615;51.340;8.288;2022-08-19T07:58:40;13.47;;;11.97;;
9160;SDS011;4615;51.340;8.288;2022-08-19T08:01:07;10.80;;;9.70;;
9160;SDS011;4615;51.340;8.288;2022-08-19T08:03:35;13.50;;;11.00;;
9160;SDS011;4615;51.340;8.288;2022-08-19T08:06:21;12.63;;;11.40;;
9160;SDS011;4615;51.340;8.288;2022-08-19T08:09:05;11.87;;;10.77;;
9160;SDS011;4615;51.340;8.288;2022-08-19T08:11:41;14.40;;;10.83;;
9160;SDS011;4615;51.340;8.288;2022-08-19T08:14:08;10.32;;;9.32;;
9160;SDS011;4615;51.340;8.288;2022-08-19T08:16:35;12.40;;;10.30;;
9160;SDS011;4615;51.340;8.288;2022-08-19T08:19:03;11.13;;;9.60;;
9160;SDS011;4615;51.340;8.288;2022-08-19T08:21:31;11.90;;;9.77;;
9160;SDS011;4615;51.340;8.288;2022-08-19T08:23:58;9.87;;;8.87;;
9160;SDS011;4615;51.340;8.288;2022-08-19T08:26:24;9.20;;;7.87;;
9160;SDS011;4615;51.340;8.288;2022-08-19T08:28:50;8.80;;;7.80;;
9160;SDS011;4615;51.340;8.288;2022-08-19T08:31:17;12.18;;;8.25;;
9160;SDS011;4615;51.340;8.288;2022-08-19T08:33:44;9.73;;;8.68;;
9160;SDS011;4615;51.340;8.288;2022-08-19T08:36:11;10.50;;;9.40;;
9160;SDS011;4615;51.340;8.288;2022-08-19T08:38:41;10.27;;;9.27;;
9160;SDS011;4615;51.340;8.288;2022-08-19T08:41:12;9.75;;;8.68;;
9160;SDS011;4615;51.340;8.288;2022-08-19T08:43:44;9.35;;;8.55;;
9160;SDS011;4615;51.340;8.288;2022-08-19T08:46:12;10.43;;;9.35;;
9160;SDS011;4615;51.340;8.288;2022-08-19T08:48:41;11.60;;;10.05;;
9160;SDS011;4615;51.340;8.288;2022-08-19T08:51:12;10.35;;;9.40;;
9160;SDS011;4615;51.340;8.288;2022-08-19T08:53:42;9.90;;;8.85;;
9160;SDS011;4615;51.340;8.288;2022-08-19T08:56:09;9.82;;;8.27;;
9160;SDS011;4615;51.340;8.288;2022-08-19T08:58:41;8.63;;;6.97;;
9160;SDS011;4615;51.340;8.288;2022-08-19T09:01:09;9.55;;;8.35;;
9160;SDS011;4615;51.340;8.288;2022-08-19T09:03:36;10.65;;;9.65;;
9160;SDS011;4615;51.340;8.288;2022-08-19T09:06:03;10.63;;;9.43;;
9160;SDS011;4615;51.340;8.288;2022-08-19T09:08:34;9.73;;;8.77;;
9160;SDS011;4615;51.340;8.288;2022-08-19T09:11:05;11.90;;;7.38;;
9160;SDS011;4615;51.340;8.288;2022-08-19T09:13:34;7.72;;;6.43;;
9160;SDS011;4615;51.340;8.288;2022-08-19T09:16:05;7.57;;;6.80;;
9160;SDS011;4615;51.340;8.288;2022-08-19T09:18:38;8.35;;;6.70;;
9160;SDS011;4615;51.340;8.288;2022-08-19T09:21:05;7.78;;;6.78;;
9160;SDS011;4615;51.340;8.288;2022-08-19T09:23:32;8.88;;;6.85;;
9160;SDS011;4615;51.340;8.288;2022-08-19T09:25:59;8.10;;;7.30;;
9160;SDS011;4615;51.340;8.288;2022-08-19T09:28:27;7.85;;;6.95;;
9160;SDS011;4615;51.340;8.288;2022-08-19T09:30:54;8.38;;;7.35;;
9160;SDS011;4615;51.340;8.288;2022-08-19T09:33:20;8.10;;;6.07;;
9160;SDS011;4615;51.340;8.288;2022-08-19T09:35:47;7.57;;;6.75;;
9160;SDS011;4615;51.340;8.288;2022-08-19T09:38:13;7.93;;;7.13;;
9160;SDS011;4615;51.340;8.288;2022-08-19T09:40:40;7.20;;;5.93;;
9160;SDS011;4615;51.340;8.288;2022-08-19T09:43:06;6.75;;;5.22;;
9160;SDS011;4615;51.340;8.288;2022-08-19T09:45:35;7.03;;;6.07;;
9160;SDS011;4615;51.340;8.288;2022-08-19T09:48:01;6.93;;;5.68;;
9160;SDS011;4615;51.340;8.288;2022-08-19T09:50:28;6.47;;;5.75;;
9160;SDS011;4615;51.340;8.288;2022-08-19T09:52:57;6.97;;;4.93;;
9160;SDS011;4615;51.340;8.288;2022-08-19T09:55:24;6.30;;;5.70;;
9160;SDS011;4615;51.340;8.288;2022-08-19T09:57:50;5.53;;;5.10;;
9160;SDS011;4615;51.340;8.288;2022-08-19T10:00:19;5.80;;;5.30;;
9160;SDS011;4615;51.340;8.288;2022-08-19T10:02:47;6.07;;;5.40;;
9160;SDS011;4615;51.340;8.288;2022-08-19T10:05:13;6.38;;;5.80;;
9160;SDS011;4615;51.340;8.288;2022-08-19T10:07:57;7.32;;;6.30;;
9160;SDS011;4615;51.340;8.288;2022-08-19T10:10:25;8.10;;;5.82;;
9160;SDS011;4615;51.340;8.288;2022-08-19T10:12:52;6.07;;;5.50;;
9160;SDS011;4615;51.340;8.288;2022-08-19T10:15:20;7.00;;;5.85;;
9160;SDS011;4615;51.340;8.288;2022-08-19T10:17:48;6.57;;;6.00;;
9160;SDS011;4615;51.340;8.288;2022-08-19T10:20:14;7.18;;;5.65;;
9160;SDS011;4615;51.340;8.288;2022-08-19T10:22:40;7.22;;;6.53;;
9160;SDS011;4615;51.340;8.288;2022-08-19T10:25:08;12.52;;;6.95;;
9160;SDS011;4615;51.340;8.288;2022-08-19T10:27:34;9.15;;;6.40;;
9160;SDS011;4615;51.340;8.288;2022-08-19T10:30:02;6.40;;;5.80;;
9160;SDS011;4615;51.340;8.288;2022-08-19T10:32:28;6.75;;;6.07;;
9160;SDS011;4615;51.340;8.288;2022-08-19T10:34:56;9.63;;;5.97;;
9160;SDS011;4615;51.340;8.288;2022-08-19T10:37:23;7.22;;;6.63;;
9160;SDS011;4615;51.340;8.288;2022-08-19T10:39:49;7.35;;;6.75;;
9160;SDS011;4615;51.340;8.288;2022-08-19T10:42:16;9.00;;;6.70;;
9160;SDS011;4615;51.340;8.288;2022-08-19T10:44:43;8.52;;;6.80;;
9160;SDS011;4615;51.340;8.288;2022-08-19T10:47:11;8.52;;;6.60;;
9160;SDS011;4615;51.340;8.288;2022-08-19T10:49:38;7.85;;;6.93;;
9160;SDS011;4615;51.340;8.288;2022-08-19T10:52:25;8.02;;;7.32;;
9160;SDS011;4615;51.340;8.288;2022-08-19T10:55:01;7.93;;;7.22;;
9160;SDS011;4615;51.340;8.288;2022-08-19T10:57:45;7.78;;;7.03;;
9160;SDS011;4615;51.340;8.288;2022-08-19T11:00:12;7.43;;;6.75;;
9160;SDS011;4615;51.340;8.288;2022-08-19T11:02:38;6.60;;;6.00;;
9160;SDS011;4615;51.340;8.288;2022-08-19T11:05:06;7.93;;;6.63;;
9160;SDS011;4615;51.340;8.288;2022-08-19T11:07:36;7.35;;;6.00;;
9160;SDS011;4615;51.340;8.288;2022-08-19T11:10:02;7.45;;;6.75;;
9160;SDS011;4615;51.340;8.288;2022-08-19T11:12:29;6.88;;;6.18;;
9160;SDS011;4615;51.340;8.288;2022-08-19T11:14:55;8.52;;;6.95;;
9160;SDS011;4615;51.340;8.288;2022-08-19T11:17:22;7.40;;;6.75;;
9160;SDS011;4615;51.340;8.288;2022-08-19T11:19:48;6.63;;;6.00;;
9160;SDS011;4615;51.340;8.288;2022-08-19T11:22:15;7.47;;;6.65;;
9160;SDS011;4615;51.340;8.288;2022-08-19T11:24:43;9.60;;;7.50;;
9160;SDS011;4615;51.340;8.288;2022-08-19T11:27:10;7.10;;;6.45;;
9160;SDS011;4615;51.340;8.288;2022-08-19T11:29:37;7.95;;;5.88;;
9160;SDS011;4615;51.340;8.288;2022-08-19T11:32:05;8.90;;;5.82;;
9160;SDS011;4615;51.340;8.288;2022-08-19T11:34:31;6.78;;;6.18;;
9160;SDS011;4615;51.340;8.288;2022-08-19T11:36:58;7.00;;;6.10;;
9160;SDS011;4615;51.340;8.288;2022-08-19T11:39:25;6.13;;;5.53;;
9160;SDS011;4615;51.340;8.288;2022-08-19T11:41:53;5.93;;;5.35;;
9160;SDS011;4615;51.340;8.288;2022-08-19T11:44:20;6.22;;;5.60;;
9160;SDS011;4615;51.340;8.288;2022-08-19T11:46:46;6.03;;;5.45;;
9160;SDS011;4615;51.340;8.288;2022-08-19T11:49:13;5.35;;;4.90;;
9160;SDS011;4615;51.340;8.288;2022-08-19T11:51:40;8.52;;;5.40;;
9160;SDS011;4615;51.340;8.288;2022-08-19T11:54:07;8.38;;;5.45;;
9160;SDS011;4615;51.340;8.288;2022-08-19T11:56:34;5.03;;;4.63;;
9160;SDS011;4615;51.340;8.288;2022-08-19T11:59:04;5.30;;;4.90;;
9160;SDS011;4615;51.340;8.288;2022-08-19T12:01:31;4.82;;;4.40;;
9160;SDS011;4615;51.340;8.288;2022-08-19T12:03:58;5.63;;;3.95;;
9160;SDS011;4615;51.340;8.288;2022-08-19T12:06:25;5.22;;;4.72;;
9160;SDS011;4615;51.340;8.288;2022-08-19T12:08:53;5.03;;;4.55;;
9160;SDS011;4615;51.340;8.288;2022-08-19T12:11:20;6.20;;;5.60;;
9160;SDS011;4615;51.340;8.288;2022-08-19T12:13:46;6.35;;;5.75;;
9160;SDS011;4615;51.340;8.288;2022-08-19T12:16:15;6.45;;;5.80;;
9160;SDS011;4615;51.340;8.288;2022-08-19T12:18:42;5.60;;;5.10;;
9160;SDS011;4615;51.340;8.288;2022-08-19T12:21:11;6.50;;;6.00;;
9160;SDS011;4615;51.340;8.288;2022-08-19T12:23:38;8.18;;;5.88;;
9160;SDS011;4615;51.340;8.288;2022-08-19T12:26:05;12.13;;;8.63;;
9160;SDS011;4615;51.340;8.288;2022-08-19T12:28:31;6.47;;;5.85;;
9160;SDS011;4615;51.340;8.288;2022-08-19T12:30:58;6.40;;;5.80;;
9160;SDS011;4615;51.340;8.288;2022-08-19T12:33:26;7.10;;;6.32;;
9160;SDS011;4615;51.340;8.288;2022-08-19T12:35:53;7.50;;;6.78;;
9160;SDS011;4615;51.340;8.288;2022-08-19T12:38:20;8.05;;;7.30;;
9160;SDS011;4615;51.340;8.288;2022-08-19T12:40:49;7.72;;;6.97;;
9160;SDS011;4615;51.340;8.288;2022-08-19T12:43:16;8.18;;;7.38;;
9160;SDS011;4615;51.340;8.288;2022-08-19T12:45:44;6.80;;;6.20;;
9160;SDS011;4615;51.340;8.288;2022-08-19T12:48:11;7.55;;;6.80;;
9160;SDS011;4615;51.340;8.288;2022-08-19T12:50:40;6.53;;;5.90;;
9160;SDS011;4615;51.340;8.288;2022-08-19T12:53:06;8.02;;;6.63;;
9160;SDS011;4615;51.340;8.288;2022-08-19T12:55:33;9.02;;;7.57;;
9160;SDS011;4615;51.340;8.288;2022-08-19T12:57:59;8.50;;;7.68;;
9160;SDS011;4615;51.340;8.288;2022-08-19T13:00:26;8.32;;;7.63;;
9160;SDS011;4615;51.340;8.288;2022-08-19T13:02:53;9.85;;;8.88;;
9160;SDS011;4615;51.340;8.288;2022-08-19T13:05:20;9.43;;;8.52;;
9160;SDS011;4615;51.340;8.288;2022-08-19T13:07:49;9.35;;;8.45;;
9160;SDS011;4615;51.340;8.288;2022-08-19T13:10:16;8.50;;;7.80;;
9160;SDS011;4615;51.340;8.288;2022-08-19T13:12:43;8.18;;;6.90;;
9160;SDS011;4615;51.340;8.288;2022-08-19T13:15:10;9.90;;;9.02;;
9160;SDS011;4615;51.340;8.288;2022-08-19T13:17:37;8.40;;;7.70;;
9160;SDS011;4615;51.340;8.288;2022-08-19T13:20:04;8.52;;;7.82;;
9160;SDS011;4615;51.340;8.288;2022-08-19T13:22:32;8.13;;;7.32;;
9160;SDS011;4615;51.340;8.288;2022-08-19T13:25:02;7.93;;;7.13;;
9160;SDS011;4615;51.340;8.288;2022-08-19T13:27:28;7.97;;;7.22;;
9160;SDS011;4615;51.340;8.288;2022-08-19T13:29:55;7.85;;;7.05;;
9160;SDS011;4615;51.340;8.288;2022-08-19T13:32:38;8.25;;;7.28;;
9160;SDS011;4615;51.340;8.288;2022-08-19T13:35:22;9.35;;;7.10;;
9160;SDS011;4615;51.340;8.288;2022-08-19T13:37:48;9.38;;;8.60;;
9160;SDS011;4615;51.340;8.288;2022-08-19T13:40:17;8.82;;;7.95;;
9160;SDS011;4615;51.340;8.288;2022-08-19T13:42:46;8.55;;;7.85;;
9160;SDS011;4615;51.340;8.288;2022-08-19T13:45:13;11.45;;;7.70;;
9160;SDS011;4615;51.340;8.288;2022-08-19T13:47:40;7.60;;;6.88;;
9160;SDS011;4615;51.340;8.288;2022-08-19T13:50:09;7.68;;;6.88;;
9160;SDS011;4615;51.340;8.288;2022-08-19T13:52:36;7.63;;;6.93;;
9160;SDS011;4615;51.340;8.288;2022-08-19T13:55:03;8.02;;;7.10;;
9160;SDS011;4615;51.340;8.288;2022-08-19T13:57:31;7.95;;;6.78;;
9160;SDS011;4615;51.340;8.288;2022-08-19T13:59:58;8.07;;;6.78;;
9160;SDS011;4615;51.340;8.288;2022-08-19T14:02:24;6.78;;;6.22;;
9160;SDS011;4615;51.340;8.288;2022-08-19T14:04:51;8.07;;;7.30;;
9160;SDS011;4615;51.340;8.288;2022-08-19T14:07:17;7.57;;;6.82;;
9160;SDS011;4615;51.340;8.288;2022-08-19T14:09:44;7.35;;;6.60;;
9160;SDS011;4615;51.340;8.288;2022-08-19T14:12:10;8.32;;;7.53;;
9160;SDS011;4615;51.340;8.288;2022-08-19T14:14:38;7.90;;;7.10;;
9160;SDS011;4615;51.340;8.288;2022-08-19T14:17:05;7.97;;;7.15;;
9160;SDS011;4615;51.340;8.288;2022-08-19T14:19:32;8.82;;;6.75;;
9160;SDS011;4615;51.340;8.288;2022-08-19T14:21:58;7.03;;;6.28;;
9160;SDS011;4615;51.340;8.288;2022-08-19T14:24:24;10.18;;;7.13;;
9160;SDS011;4615;51.340;8.288;2022-08-19T14:26:51;7.57;;;5.78;;
9160;SDS011;4615;51.340;8.288;2022-08-19T14:29:17;7.38;;;6.68;;
9160;SDS011;4615;51.340;8.288;2022-08-19T14:31:45;7.63;;;6.93;;
9160;SDS011;4615;51.340;8.288;2022-08-19T14:34:11;7.90;;;7.15;;
9160;SDS011;4615;51.340;8.288;2022-08-19T14:36:38;9.13;;;6.70;;
9160;SDS011;4615;51.340;8.288;2022-08-19T14:39:04;13.65;;;6.80;;
9160;SDS011;4615;51.340;8.288;2022-08-19T14:41:31;10.77;;;6.85;;
9160;SDS011;4615;51.340;8.288;2022-08-19T14:43:58;10.45;;;6.50;;
9160;SDS011;4615;51.340;8.288;2022-08-19T14:46:26;7.95;;;7.15;;
9160;SDS011;4615;51.340;8.288;2022-08-19T14:48:55;7.80;;;6.97;;
9160;SDS011;4615;51.340;8.288;2022-08-19T14:51:23;9.35;;;8.45;;
9160;SDS011;4615;51.340;8.288;2022-08-19T14:53:50;8.23;;;7.28;;
9160;SDS011;4615;51.340;8.288;2022-08-19T14:56:17;8.20;;;7.60;;
9160;SDS011;4615;51.340;8.288;2022-08-19T14:58:44;7.18;;;6.22;;
9160;SDS011;4615;51.340;8.288;2022-08-19T15:01:11;7.88;;;6.60;;
9160;SDS011;4615;51.340;8.288;2022-08-19T15:03:38;6.53;;;5.93;;
9160;SDS011;4615;51.340;8.288;2022-08-19T15:06:07;7.30;;;6.57;;